sensor_id;sensor_type;location;lat;lon;timestamp;P1;durP1;ratioP1;P2;durP2;ratioP2
56824;SDS011;42705;50.326;18.772;2023-09-08T00:00:35;19.40;;;12.00;;
56824;SDS011;42705;50.326;18.772;2023-09-08T00:06:17;14.80;;;10.80;;
56824;SDS011;42705;50.326;18.772;2023-09-08T00:11:39;15.30;;;9.90;;
56824;SDS011;42705;50.326;18.772;2023-09-08T00:17:01;13.50;;;9.50;;
56824;SDS011;42705;50.326;18.772;2023-09-08T00:22:23;14.60;;;10.20;;
56824;SDS011;42705;50.326;18.772;2023-09-08T00:27:45;13.80;;;10.10;;
56824;SDS011;42705;50.326;18.772;2023-09-08T00:33:07;17.70;;;12.00;;
56824;SDS011;42705;50.326;18.772;2023-09-08T00:38:30;15.50;;;10.90;;
56824;SDS011;42705;50.326;18.772;2023-09-08T00:43:52;14.60;;;10.80;;
56824;SDS011;42705;50.326;18.772;2023-09-08T00:49:14;16.40;;;10.40;;
56824;SDS011;42705;50.326;18.772;2023-09-08T00:54:36;19.20;;;10.70;;
56824;SDS011;42705;50.326;18.772;2023-09-08T00:59:57;18.10;;;11.00;;
56824;SDS011;42705;50.326;18.772;2023-09-08T01:05:19;16.40;;;11.00;;
56824;SDS011;42705;50.326;18.772;2023-09-08T01:16:04;16.20;;;11.30;;
56824;SDS011;42705;50.326;18.772;2023-09-08T01:27:05;17.20;;;10.80;;
56824;SDS011;42705;50.326;18.772;2023-09-08T01:32:29;18.70;;;12.60;;
56824;SDS011;42705;50.326;18.772;2023-09-08T01:37:51;18.00;;;13.10;;
56824;SDS011;42705;50.326;18.772;2023-09-08T01:43:13;24.90;;;15.50;;
56824;SDS011;42705;50.326;18.772;2023-09-08T01:48:35;23.30;;;13.80;;
56824;SDS011;42705;50.326;18.772;2023-09-08T01:53:57;27.20;;;13.80;;
56824;SDS011;42705;50.326;18.772;2023-09-08T01:59:18;21.00;;;12.90;;
56824;SDS011;42705;50.326;18.772;2023-09-08T02:04:40;22.50;;;13.80;;
56824;SDS011;42705;50.326;18.772;2023-09-08T02:10:02;26.60;;;14.30;;
56824;SDS011;42705;50.326;18.772;2023-09-08T02:15:24;30.50;;;15.60;;
56824;SDS011;42705;50.326;18.772;2023-09-08T02:20:46;26.00;;;14.10;;
56824;SDS011;42705;50.326;18.772;2023-09-08T02:26:07;18.50;;;12.70;;
56824;SDS011;42705;50.326;18.772;2023-09-08T02:31:30;20.10;;;12.40;;
56824;SDS011;42705;50.326;18.772;2023-09-08T02:36:54;20.40;;;12.30;;
56824;SDS011;42705;50.326;18.772;2023-09-08T02:42:18;14.70;;;11.00;;
56824;SDS011;42705;50.326;18.772;2023-09-08T02:47:40;15.40;;;11.00;;
56824;SDS011;42705;50.326;18.772;2023-09-08T02:53:03;17.00;;;10.90;;
56824;SDS011;42705;50.326;18.772;2023-09-08T02:58:26;15.00;;;11.20;;
56824;SDS011;42705;50.326;18.772;2023-09-08T03:03:48;15.70;;;11.50;;
56824;SDS011;42705;50.326;18.772;2023-09-08T03:09:10;15.10;;;11.30;;
56824;SDS011;42705;50.326;18.772;2023-09-08T03:14:32;16.60;;;11.20;;
56824;SDS011;42705;50.326;18.772;2023-09-08T03:19:53;16.40;;;12.40;;
56824;SDS011;42705;50.326;18.772;2023-09-08T03:25:15;15.70;;;11.70;;
56824;SDS011;42705;50.326;18.772;2023-09-08T03:30:38;15.50;;;11.00;;
56824;SDS011;42705;50.326;18.772;2023-09-08T03:36:00;16.20;;;12.10;;
56824;SDS011;42705;50.326;18.772;2023-09-08T03:41:23;18.90;;;12.50;;
56824;SDS011;42705;50.326;18.772;2023-09-08T03:46:45;19.30;;;12.20;;
56824;SDS011;42705;50.326;18.772;2023-09-08T03:52:07;13.70;;;11.30;;
56824;SDS011;42705;50.326;18.772;2023-09-08T03:57:29;17.70;;;11.80;;
56824;SDS011;42705;50.326;18.772;2023-09-08T04:02:51;15.30;;;11.90;;
56824;SDS011;42705;50.326;18.772;2023-09-08T04:08:13;18.20;;;12.80;;
56824;SDS011;42705;50.326;18.772;2023-09-08T04:13:35;15.70;;;11.50;;
56824;SDS011;42705;50.326;18.772;2023-09-08T04:19:09;18.90;;;12.60;;
56824;SDS011;42705;50.326;18.772;2023-09-08T04:24:34;19.60;;;13.20;;
56824;SDS011;42705;50.326;18.772;2023-09-08T04:29:57;20.70;;;12.70;;
56824;SDS011;42705;50.326;18.772;2023-09-08T04:35:19;18.60;;;12.10;;
56824;SDS011;42705;50.326;18.772;2023-09-08T04:40:41;21.30;;;12.60;;
56824;SDS011;42705;50.326;18.772;2023-09-08T04:46:04;20.00;;;12.80;;
56824;SDS011;42705;50.326;18.772;2023-09-08T04:51:26;17.00;;;12.40;;
56824;SDS011;42705;50.326;18.772;2023-09-08T04:56:48;16.00;;;11.20;;
56824;SDS011;42705;50.326;18.772;2023-09-08T05:02:10;16.20;;;11.20;;
56824;SDS011;42705;50.326;18.772;2023-09-08T05:07:32;21.70;;;11.90;;
56824;SDS011;42705;50.326;18.772;2023-09-08T05:12:54;16.00;;;11.90;;
56824;SDS011;42705;50.326;18.772;2023-09-08T05:18:17;17.30;;;10.50;;
56824;SDS011;42705;50.326;18.772;2023-09-08T05:23:39;18.50;;;11.90;;
56824;SDS011;42705;50.326;18.772;2023-09-08T05:29:01;15.90;;;11.50;;
56824;SDS011;42705;50.326;18.772;2023-09-08T05:34:23;21.00;;;12.90;;
56824;SDS011;42705;50.326;18.772;2023-09-08T05:39:46;18.50;;;12.00;;
56824;SDS011;42705;50.326;18.772;2023-09-08T05:45:08;17.50;;;11.00;;
56824;SDS011;42705;50.326;18.772;2023-09-08T05:50:30;21.40;;;12.40;;
56824;SDS011;42705;50.326;18.772;2023-09-08T05:55:52;19.50;;;12.50;;
56824;SDS011;42705;50.326;18.772;2023-09-08T06:01:15;18.10;;;12.30;;
56824;SDS011;42705;50.326;18.772;2023-09-08T06:06:37;16.60;;;11.60;;
56824;SDS011;42705;50.326;18.772;2023-09-08T06:11:59;18.50;;;12.00;;
56824;SDS011;42705;50.326;18.772;2023-09-08T06:17:21;21.00;;;12.40;;
56824;SDS011;42705;50.326;18.772;2023-09-08T06:22:44;22.10;;;11.70;;
56824;SDS011;42705;50.326;18.772;2023-09-08T06:28:07;19.90;;;11.50;;
56824;SDS011;42705;50.326;18.772;2023-09-08T06:33:29;15.90;;;11.00;;
56824;SDS011;42705;50.326;18.772;2023-09-08T06:38:51;17.00;;;10.60;;
56824;SDS011;42705;50.326;18.772;2023-09-08T06:44:13;19.20;;;10.50;;
56824;SDS011;42705;50.326;18.772;2023-09-08T06:49:35;16.20;;;10.60;;
56824;SDS011;42705;50.326;18.772;2023-09-08T06:54:57;15.40;;;11.30;;
56824;SDS011;42705;50.326;18.772;2023-09-08T07:00:20;13.20;;;9.30;;
56824;SDS011;42705;50.326;18.772;2023-09-08T07:05:43;15.30;;;9.60;;
56824;SDS011;42705;50.326;18.772;2023-09-08T07:11:07;16.10;;;10.20;;
56824;SDS011;42705;50.326;18.772;2023-09-08T07:16:31;16.30;;;10.50;;
56824;SDS011;42705;50.326;18.772;2023-09-08T07:21:53;13.00;;;9.40;;
56824;SDS011;42705;50.326;18.772;2023-09-08T07:32:38;15.70;;;8.80;;
56824;SDS011;42705;50.326;18.772;2023-09-08T07:38:01;12.00;;;8.00;;
56824;SDS011;42705;50.326;18.772;2023-09-08T07:43:23;11.10;;;7.60;;
56824;SDS011;42705;50.326;18.772;2023-09-08T07:48:45;10.90;;;7.90;;
56824;SDS011;42705;50.326;18.772;2023-09-08T07:54:07;9.90;;;7.20;;
56824;SDS011;42705;50.326;18.772;2023-09-08T07:59:29;10.60;;;7.90;;
56824;SDS011;42705;50.326;18.772;2023-09-08T08:04:50;11.60;;;8.40;;
56824;SDS011;42705;50.326;18.772;2023-09-08T08:10:12;13.40;;;7.20;;
56824;SDS011;42705;50.326;18.772;2023-09-08T08:20:57;13.60;;;7.70;;
56824;SDS011;42705;50.326;18.772;2023-09-08T08:26:19;8.10;;;7.00;;
56824;SDS011;42705;50.326;18.772;2023-09-08T08:31:41;10.00;;;7.50;;
56824;SDS011;42705;50.326;18.772;2023-09-08T08:37:03;10.30;;;7.30;;
56824;SDS011;42705;50.326;18.772;2023-09-08T08:42:30;10.00;;;7.10;;
56824;SDS011;42705;50.326;18.772;2023-09-08T08:47:53;13.00;;;6.50;;
56824;SDS011;42705;50.326;18.772;2023-09-08T08:53:17;8.90;;;6.70;;
56824;SDS011;42705;50.326;18.772;2023-09-08T08:58:42;11.50;;;7.00;;
56824;SDS011;42705;50.326;18.772;2023-09-08T09:04:05;11.50;;;7.90;;
56824;SDS011;42705;50.326;18.772;2023-09-08T09:09:28;11.70;;;6.90;;
56824;SDS011;42705;50.326;18.772;2023-09-08T09:14:53;10.70;;;7.10;;
56824;SDS011;42705;50.326;18.772;2023-09-08T09:20:15;13.30;;;6.90;;
56824;SDS011;42705;50.326;18.772;2023-09-08T09:25:41;11.20;;;6.80;;
56824;SDS011;42705;50.326;18.772;2023-09-08T09:31:04;13.20;;;6.80;;
56824;SDS011;42705;50.326;18.772;2023-09-08T09:36:26;9.20;;;5.80;;
56824;SDS011;42705;50.326;18.772;2023-09-08T09:41:48;12.50;;;9.80;;
56824;SDS011;42705;50.326;18.772;2023-09-08T09:52:32;8.50;;;6.00;;
56824;SDS011;42705;50.326;18.772;2023-09-08T09:58:00;8.60;;;5.80;;
56824;SDS011;42705;50.326;18.772;2023-09-08T10:03:25;7.40;;;5.60;;
56824;SDS011;42705;50.326;18.772;2023-09-08T10:08:48;8.30;;;5.90;;
56824;SDS011;42705;50.326;18.772;2023-09-08T10:14:12;9.30;;;6.30;;
56824;SDS011;42705;50.326;18.772;2023-09-08T10:19:38;6.40;;;5.70;;
56824;SDS011;42705;50.326;18.772;2023-09-08T10:25:03;9.20;;;5.90;;
56824;SDS011;42705;50.326;18.772;2023-09-08T10:30:27;8.00;;;5.60;;
56824;SDS011;42705;50.326;18.772;2023-09-08T10:35:50;7.40;;;6.10;;
56824;SDS011;42705;50.326;18.772;2023-09-08T10:46:38;8.20;;;5.00;;
56824;SDS011;42705;50.326;18.772;2023-09-08T10:57:31;8.20;;;5.00;;
56824;SDS011;42705;50.326;18.772;2023-09-08T11:02:55;6.50;;;4.80;;
56824;SDS011;42705;50.326;18.772;2023-09-08T11:08:17;9.40;;;6.70;;
56824;SDS011;42705;50.326;18.772;2023-09-08T11:13:40;7.90;;;6.00;;
56824;SDS011;42705;50.326;18.772;2023-09-08T11:19:02;5.10;;;4.40;;
56824;SDS011;42705;50.326;18.772;2023-09-08T11:24:26;5.20;;;4.20;;
56824;SDS011;42705;50.326;18.772;2023-09-08T11:29:47;6.40;;;4.60;;
56824;SDS011;42705;50.326;18.772;2023-09-08T11:35:11;5.00;;;4.30;;
56824;SDS011;42705;50.326;18.772;2023-09-08T11:40:35;6.40;;;4.70;;
56824;SDS011;42705;50.326;18.772;2023-09-08T11:45:58;7.50;;;4.80;;
56824;SDS011;42705;50.326;18.772;2023-09-08T11:51:23;8.90;;;4.40;;
56824;SDS011;42705;50.326;18.772;2023-09-08T11:56:45;9.30;;;4.00;;
56824;SDS011;42705;50.326;18.772;2023-09-08T12:02:07;4.40;;;3.90;;
56824;SDS011;42705;50.326;18.772;2023-09-08T12:07:29;6.20;;;4.20;;
56824;SDS011;42705;50.326;18.772;2023-09-08T12:12:52;6.70;;;4.60;;
56824;SDS011;42705;50.326;18.772;2023-09-08T12:18:15;5.90;;;4.30;;
56824;SDS011;42705;50.326;18.772;2023-09-08T12:23:47;8.80;;;4.60;;
56824;SDS011;42705;50.326;18.772;2023-09-08T12:29:13;6.10;;;4.20;;
56824;SDS011;42705;50.326;18.772;2023-09-08T12:34:35;5.00;;;4.00;;
56824;SDS011;42705;50.326;18.772;2023-09-08T12:39:57;5.80;;;3.60;;
56824;SDS011;42705;50.326;18.772;2023-09-08T12:45:20;5.40;;;3.60;;
56824;SDS011;42705;50.326;18.772;2023-09-08T12:50:44;8.90;;;4.00;;
56824;SDS011;42705;50.326;18.772;2023-09-08T12:56:06;6.00;;;3.90;;
56824;SDS011;42705;50.326;18.772;2023-09-08T13:01:28;6.40;;;3.70;;
56824;SDS011;42705;50.326;18.772;2023-09-08T13:06:50;4.00;;;3.30;;
56824;SDS011;42705;50.326;18.772;2023-09-08T13:12:12;6.70;;;3.70;;
56824;SDS011;42705;50.326;18.772;2023-09-08T13:17:35;5.40;;;3.00;;
56824;SDS011;42705;50.326;18.772;2023-09-08T13:22:57;4.00;;;3.00;;
56824;SDS011;42705;50.326;18.772;2023-09-08T13:28:19;4.70;;;3.00;;
56824;SDS011;42705;50.326;18.772;2023-09-08T13:33:40;6.10;;;3.20;;
56824;SDS011;42705;50.326;18.772;2023-09-08T13:39:02;4.30;;;3.30;;
56824;SDS011;42705;50.326;18.772;2023-09-08T13:44:24;5.10;;;3.00;;
56824;SDS011;42705;50.326;18.772;2023-09-08T13:49:46;3.40;;;3.20;;
56824;SDS011;42705;50.326;18.772;2023-09-08T13:55:08;4.00;;;3.20;;
56824;SDS011;42705;50.326;18.772;2023-09-08T14:00:31;3.40;;;3.10;;
56824;SDS011;42705;50.326;18.772;2023-09-08T14:05:53;4.20;;;3.60;;
56824;SDS011;42705;50.326;18.772;2023-09-08T14:11:15;7.20;;;3.20;;
56824;SDS011;42705;50.326;18.772;2023-09-08T14:16:37;7.50;;;3.20;;
56824;SDS011;42705;50.326;18.772;2023-09-08T14:21:59;6.10;;;3.30;;
56824;SDS011;42705;50.326;18.772;2023-09-08T14:27:20;3.00;;;2.70;;
56824;SDS011;42705;50.326;18.772;2023-09-08T14:32:42;3.50;;;3.20;;
56824;SDS011;42705;50.326;18.772;2023-09-08T14:38:04;4.50;;;3.30;;
56824;SDS011;42705;50.326;18.772;2023-09-08T14:43:26;4.10;;;3.00;;
56824;SDS011;42705;50.326;18.772;2023-09-08T14:48:49;4.80;;;3.30;;
56824;SDS011;42705;50.326;18.772;2023-09-08T14:54:11;4.60;;;3.00;;
56824;SDS011;42705;50.326;18.772;2023-09-08T14:59:33;5.20;;;3.50;;
56824;SDS011;42705;50.326;18.772;2023-09-08T15:04:56;4.60;;;3.40;;
56824;SDS011;42705;50.326;18.772;2023-09-08T15:10:26;8.50;;;3.60;;
56824;SDS011;42705;50.326;18.772;2023-09-08T15:15:57;5.00;;;3.10;;
56824;SDS011;42705;50.326;18.772;2023-09-08T15:21:31;4.60;;;2.90;;
56824;SDS011;42705;50.326;18.772;2023-09-08T15:27:00;5.70;;;3.40;;
56824;SDS011;42705;50.326;18.772;2023-09-08T15:32:27;6.00;;;3.10;;
56824;SDS011;42705;50.326;18.772;2023-09-08T15:37:50;5.40;;;3.60;;
56824;SDS011;42705;50.326;18.772;2023-09-08T15:43:35;5.00;;;3.00;;
56824;SDS011;42705;50.326;18.772;2023-09-08T15:49:14;4.40;;;3.40;;
56824;SDS011;42705;50.326;18.772;2023-09-08T15:54:36;4.50;;;3.30;;
56824;SDS011;42705;50.326;18.772;2023-09-08T15:59:58;5.50;;;3.30;;
56824;SDS011;42705;50.326;18.772;2023-09-08T16:05:20;6.70;;;3.60;;
56824;SDS011;42705;50.326;18.772;2023-09-08T16:10:42;6.80;;;4.50;;
56824;SDS011;42705;50.326;18.772;2023-09-08T16:16:04;5.60;;;3.90;;
56824;SDS011;42705;50.326;18.772;2023-09-08T16:21:26;6.90;;;5.20;;
56824;SDS011;42705;50.326;18.772;2023-09-08T16:26:49;10.80;;;6.00;;
56824;SDS011;42705;50.326;18.772;2023-09-08T16:32:10;12.80;;;9.20;;
56824;SDS011;42705;50.326;18.772;2023-09-08T16:37:33;12.90;;;10.30;;
56824;SDS011;42705;50.326;18.772;2023-09-08T16:42:55;48.80;;;42.00;;
56824;SDS011;42705;50.326;18.772;2023-09-08T16:48:17;21.00;;;18.20;;
56824;SDS011;42705;50.326;18.772;2023-09-08T16:53:39;15.70;;;11.30;;
56824;SDS011;42705;50.326;18.772;2023-09-08T16:59:01;12.40;;;8.70;;
56824;SDS011;42705;50.326;18.772;2023-09-08T17:04:23;12.70;;;7.10;;
56824;SDS011;42705;50.326;18.772;2023-09-08T17:09:45;11.00;;;6.40;;
56824;SDS011;42705;50.326;18.772;2023-09-08T17:15:07;8.60;;;5.90;;
56824;SDS011;42705;50.326;18.772;2023-09-08T17:20:29;9.10;;;6.50;;
56824;SDS011;42705;50.326;18.772;2023-09-08T17:25:53;14.20;;;8.70;;
56824;SDS011;42705;50.326;18.772;2023-09-08T17:31:15;13.80;;;9.00;;
56824;SDS011;42705;50.326;18.772;2023-09-08T17:36:37;13.60;;;7.90;;
56824;SDS011;42705;50.326;18.772;2023-09-08T17:41:59;18.80;;;11.20;;
56824;SDS011;42705;50.326;18.772;2023-09-08T17:47:21;20.50;;;10.60;;
56824;SDS011;42705;50.326;18.772;2023-09-08T17:52:43;18.10;;;10.30;;
56824;SDS011;42705;50.326;18.772;2023-09-08T17:58:05;16.00;;;10.20;;
56824;SDS011;42705;50.326;18.772;2023-09-08T18:03:27;15.10;;;9.40;;
56824;SDS011;42705;50.326;18.772;2023-09-08T18:08:50;13.30;;;8.90;;
56824;SDS011;42705;50.326;18.772;2023-09-08T18:14:13;13.20;;;9.50;;
56824;SDS011;42705;50.326;18.772;2023-09-08T18:19:35;13.70;;;8.10;;
56824;SDS011;42705;50.326;18.772;2023-09-08T18:24:57;11.40;;;8.60;;
56824;SDS011;42705;50.326;18.772;2023-09-08T18:30:20;15.00;;;10.10;;
56824;SDS011;42705;50.326;18.772;2023-09-08T18:41:05;14.60;;;10.20;;
56824;SDS011;42705;50.326;18.772;2023-09-08T18:46:26;18.90;;;11.60;;
56824;SDS011;42705;50.326;18.772;2023-09-08T18:57:10;20.70;;;15.00;;
56824;SDS011;42705;50.326;18.772;2023-09-08T19:02:32;23.60;;;13.20;;
56824;SDS011;42705;50.326;18.772;2023-09-08T19:08:01;21.30;;;12.00;;
56824;SDS011;42705;50.326;18.772;2023-09-08T19:13:22;19.20;;;11.50;;
56824;SDS011;42705;50.326;18.772;2023-09-08T19:18:44;17.10;;;10.60;;
56824;SDS011;42705;50.326;18.772;2023-09-08T19:24:07;15.00;;;10.70;;
56824;SDS011;42705;50.326;18.772;2023-09-08T19:29:29;19.30;;;12.50;;
56824;SDS011;42705;50.326;18.772;2023-09-08T19:34:51;19.30;;;11.50;;
56824;SDS011;42705;50.326;18.772;2023-09-08T19:40:14;20.30;;;12.50;;
56824;SDS011;42705;50.326;18.772;2023-09-08T19:45:36;19.30;;;12.50;;
56824;SDS011;42705;50.326;18.772;2023-09-08T19:50:58;31.90;;;21.00;;
56824;SDS011;42705;50.326;18.772;2023-09-08T19:56:20;23.70;;;14.70;;
56824;SDS011;42705;50.326;18.772;2023-09-08T20:01:42;25.30;;;13.90;;
56824;SDS011;42705;50.326;18.772;2023-09-08T20:18:13;25.70;;;14.70;;
56824;SDS011;42705;50.326;18.772;2023-09-08T20:23:35;24.20;;;15.30;;
56824;SDS011;42705;50.326;18.772;2023-09-08T20:28:57;30.00;;;16.90;;
56824;SDS011;42705;50.326;18.772;2023-09-08T20:34:19;32.90;;;18.30;;
56824;SDS011;42705;50.326;18.772;2023-09-08T20:39:41;27.60;;;18.90;;
56824;SDS011;42705;50.326;18.772;2023-09-08T20:45:03;25.00;;;16.70;;
56824;SDS011;42705;50.326;18.772;2023-09-08T20:55:47;22.30;;;14.90;;
56824;SDS011;42705;50.326;18.772;2023-09-08T21:01:09;21.40;;;13.50;;
56824;SDS011;42705;50.326;18.772;2023-09-08T21:06:31;21.20;;;14.70;;
56824;SDS011;42705;50.326;18.772;2023-09-08T21:11:56;19.90;;;13.60;;
56824;SDS011;42705;50.326;18.772;2023-09-08T21:17:19;21.80;;;13.00;;
56824;SDS011;42705;50.326;18.772;2023-09-08T21:22:41;19.90;;;13.70;;
56824;SDS011;42705;50.326;18.772;2023-09-08T21:28:04;22.40;;;13.90;;
56824;SDS011;42705;50.326;18.772;2023-09-08T21:33:26;21.10;;;13.10;;
56824;SDS011;42705;50.326;18.772;2023-09-08T21:38:48;20.10;;;13.70;;
56824;SDS011;42705;50.326;18.772;2023-09-08T21:44:10;19.80;;;14.00;;
56824;SDS011;42705;50.326;18.772;2023-09-08T21:49:33;20.10;;;13.30;;
56824;SDS011;42705;50.326;18.772;2023-09-08T21:54:55;20.80;;;12.80;;
56824;SDS011;42705;50.326;18.772;2023-09-08T22:00:18;20.30;;;13.30;;
56824;SDS011;42705;50.326;18.772;2023-09-08T22:05:42;21.70;;;13.30;;
56824;SDS011;42705;50.326;18.772;2023-09-08T22:11:04;20.00;;;12.90;;
56824;SDS011;42705;50.326;18.772;2023-09-08T22:16:27;18.40;;;13.10;;
56824;SDS011;42705;50.326;18.772;2023-09-08T22:21:51;22.80;;;13.70;;
56824;SDS011;42705;50.326;18.772;2023-09-08T22:27:13;20.10;;;14.00;;
56824;SDS011;42705;50.326;18.772;2023-09-08T22:32:36;20.40;;;14.00;;
56824;SDS011;42705;50.326;18.772;2023-09-08T22:37:58;25.90;;;14.70;;
56824;SDS011;42705;50.326;18.772;2023-09-08T22:43:19;22.80;;;14.30;;
56824;SDS011;42705;50.326;18.772;2023-09-08T22:48:41;23.10;;;14.00;;
56824;SDS011;42705;50.326;18.772;2023-09-08T22:54:03;29.60;;;16.10;;
56824;SDS011;42705;50.326;18.772;2023-09-08T22:59:28;25.50;;;15.20;;
56824;SDS011;42705;50.326;18.772;2023-09-08T23:04:49;24.90;;;15.70;;
56824;SDS011;42705;50.326;18.772;2023-09-08T23:10:11;26.80;;;16.90;;
56824;SDS011;42705;50.326;18.772;2023-09-08T23:15:33;28.50;;;17.50;;
56824;SDS011;42705;50.326;18.772;2023-09-08T23:20:55;36.10;;;18.20;;
56824;SDS011;42705;50.326;18.772;2023-09-08T23:26:17;35.20;;;18.30;;
56824;SDS011;42705;50.326;18.772;2023-09-08T23:31:40;31.90;;;17.50;;
56824;SDS011;42705;50.326;18.772;2023-09-08T23:37:02;29.60;;;18.20;;
56824;SDS011;42705;50.326;18.772;2023-09-08T23:42:26;28.60;;;19.30;;
56824;SDS011;42705;50.326;18.772;2023-09-08T23:47:48;31.30;;;19.90;;
56824;SDS011;42705;50.326;18.772;2023-09-08T23:53:09;33.00;;;19.80;;
56824;SDS011;42705;50.326;18.772;2023-09-08T23:58:31;33.90;;;20.10;;
